Fortaleza Dos Nogueiras, Brazil
Current Conditions -  °F | °C
As of 4:00 PM on Wednesday 17 Dec 2014 (Local Time) from SBCI Reporting Station
Light Rain Light Rain  
Wind Chill: 77°   Ceiling: 8000
Heat Index: 78°   Visibility: 6mi
Dew Point: 73°   Wind: 0mph
Humidity: 89%   Direction: NA
Pressure: 29.85"   Gusts: NA
Location:  6.9°S, 46.15°W
Report Text: SBCI 171900Z 00000KT 9999 -RA FEW012 BKN080 BKN090 25/23 Q1011
Loading
Personal Weather Stations






























Interactive Weather Map New forecast layout! Learn more

10-Day Weather Forecast

Advertisements
Track Severe Weather on mobile